createdAt,value
2023-04-28T00:03:50.039Z,63.13
2023-04-28T00:09:16.468Z,60.32
2023-04-28T00:14:41.309Z,52.37
2023-04-28T00:20:06.655Z,48.68
2023-04-28T00:25:30.570Z,49.42
2023-04-28T00:30:54.446Z,50.83
2023-04-28T00:36:18.450Z,52.30
2023-04-28T00:41:43.264Z,53.73
2023-04-28T00:47:12.119Z,55.11
2023-04-28T00:52:37.270Z,56.26
2023-04-28T00:58:02.760Z,57.35
2023-04-28T01:03:27.398Z,58.32
2023-04-28T01:08:51.479Z,59.21
2023-04-28T01:14:17.843Z,60.03
2023-04-28T01:19:43.796Z,61.03
2023-04-28T01:25:08.618Z,71.36
2023-04-28T01:30:33.308Z,75.24
2023-04-28T01:36:01.313Z,70.82
2023-04-28T01:41:25.474Z,66.24
2023-04-28T01:46:50.604Z,62.62
2023-04-28T01:52:15.780Z,59.60
2023-04-28T01:57:40.147Z,51.95
2023-04-28T02:03:04.794Z,48.39
2023-04-28T02:08:32.535Z,49.19
2023-04-28T02:13:56.822Z,50.49
2023-04-28T02:19:21.971Z,51.99
2023-04-28T02:24:46.365Z,53.35
2023-04-28T02:30:11.262Z,54.65
2023-04-28T02:35:35.412Z,55.84
2023-04-28T02:41:05.404Z,57.11
2023-04-28T02:46:29.511Z,58.27
2023-04-28T02:51:56.569Z,59.24
2023-04-28T02:57:21.626Z,60.02
2023-04-28T03:02:45.908Z,61.01
2023-04-28T03:08:10.465Z,71.12
2023-04-28T03:13:36.273Z,75.54
2023-04-28T03:19:00.637Z,70.83
2023-04-28T03:24:25.714Z,65.75
2023-04-28T03:29:52.367Z,62.42
2023-04-28T03:35:18.796Z,60.37
2023-04-28T03:40:43.441Z,52.35
2023-04-28T03:46:43.699Z,48.24
2023-04-28T03:52:08.324Z,49.39
2023-04-28T03:57:34.328Z,50.92
2023-04-28T04:02:59.282Z,52.88
2023-04-28T04:08:23.713Z,54.92
2023-04-28T04:13:48.263Z,56.38
2023-04-28T04:19:13.377Z,57.57
2023-04-28T04:24:39.066Z,58.93
2023-04-28T04:30:04.535Z,60.04
2023-04-28T04:35:29.817Z,70.26
2023-04-28T04:40:54.431Z,74.98
2023-04-28T04:46:19.536Z,71.12
2023-04-28T04:51:44.326Z,67.09
2023-04-28T04:57:10.034Z,63.13
2023-04-28T05:02:58.019Z,60.64
2023-04-28T05:08:31.004Z,52.93
2023-04-28T05:14:10.054Z,48.81
2023-04-28T05:19:36.765Z,50.10
2023-04-28T05:25:01.908Z,52.13
2023-04-28T05:30:26.886Z,54.64
2023-04-28T05:35:52.330Z,56.55
2023-04-28T05:41:17.371Z,58.35
2023-04-28T05:46:41.853Z,60.03
2023-04-28T05:52:06.307Z,60.60
2023-04-28T05:57:32.039Z,69.16
2023-04-28T06:03:01.562Z,71.58
2023-04-28T06:08:27.081Z,67.46
2023-04-28T06:13:51.968Z,64.26
2023-04-28T06:19:19.208Z,61.01
2023-04-28T06:24:44.380Z,53.84
2023-04-28T06:30:19.248Z,50.23
2023-04-28T06:35:44.431Z,51.99
2023-04-28T06:41:09.383Z,54.66
2023-04-28T06:46:34.309Z,56.04
2023-04-28T06:51:58.256Z,57.49
2023-04-28T06:57:22.971Z,59.25
2023-04-28T07:02:47.299Z,60.31
2023-04-28T07:08:11.285Z,60.38
2023-04-28T07:13:36.274Z,60.73
2023-04-28T07:19:00.996Z,60.67
2023-04-28T07:24:25.889Z,61.41
2023-04-28T07:29:50.317Z,68.02
2023-04-28T07:36:28.961Z,67.12
2023-04-28T07:42:31.709Z,62.76
2023-04-28T07:47:56.824Z,54.54
2023-04-28T07:53:21.953Z,51.56
2023-04-28T07:58:46.278Z,52.50
2023-04-28T08:04:11.612Z,53.63
2023-04-28T08:09:36.457Z,54.68
2023-04-28T08:15:00.381Z,56.71
2023-04-28T08:20:25.575Z,56.58
2023-04-28T08:25:50.820Z,56.93
2023-04-28T08:31:15.245Z,58.16
2023-04-28T08:36:39.677Z,58.09
2023-04-28T08:42:07.978Z,57.83
2023-04-28T08:47:36.627Z,58.11
2023-04-28T08:53:05.130Z,57.91
2023-04-28T08:58:29.977Z,56.94
2023-04-28T09:03:55.447Z,56.45
2023-04-28T09:09:47.932Z,55.74
2023-04-28T09:15:37.834Z,54.57
2023-04-28T09:21:13.404Z,53.87
2023-04-28T09:26:55.476Z,54.02
2023-04-28T09:32:22.562Z,53.95
2023-04-28T09:37:47.673Z,52.90
2023-04-28T09:43:34.122Z,53.63
2023-04-28T09:49:02.833Z,52.55
2023-04-28T09:54:30.506Z,52.11
2023-04-28T09:59:54.986Z,51.80
2023-04-28T10:05:22.225Z,50.75
2023-04-28T10:10:54.984Z,50.05
2023-04-28T10:16:20.594Z,49.69
2023-04-28T10:21:53.109Z,50.02
2023-04-28T10:27:18.537Z,48.92
2023-04-28T10:32:44.267Z,48.63
2023-04-28T10:38:20.795Z,48.14
2023-04-28T10:43:51.865Z,47.55
2023-04-28T10:49:17.462Z,47.26
2023-04-28T10:55:19.335Z,46.90
2023-04-28T11:00:57.212Z,46.62
2023-04-28T11:06:38.858Z,46.52
2023-04-28T11:12:11.533Z,46.15
2023-04-28T11:17:42.827Z,45.50
2023-04-28T11:23:12.232Z,45.01
2023-04-28T11:28:52.798Z,44.71
2023-04-28T11:34:25.216Z,44.41
2023-04-28T11:39:52.199Z,43.17
2023-04-28T11:45:17.216Z,43.82
2023-04-28T11:50:41.763Z,44.01
2023-04-28T11:56:09.986Z,42.28
2023-04-28T12:01:37.743Z,42.25
2023-04-28T12:07:12.974Z,41.61
2023-04-28T12:12:49.983Z,42.45
2023-04-28T12:18:19.883Z,41.39
2023-04-28T12:23:44.278Z,40.39
2023-04-28T12:29:08.201Z,40.51
2023-04-28T12:34:33.606Z,41.21
2023-04-28T12:39:58.255Z,41.53
2023-04-28T12:45:24.679Z,41.20
2023-04-28T12:50:49.582Z,40.96
2023-04-28T12:56:13.870Z,40.56
2023-04-28T13:01:38.522Z,40.00
2023-04-28T13:07:03.951Z,40.06
2023-04-28T13:12:28.324Z,39.76
2023-04-28T13:17:53.491Z,39.96
2023-04-28T13:23:18.189Z,40.13
2023-04-28T13:28:42.640Z,39.43
2023-04-28T13:34:06.570Z,39.94
2023-04-28T13:39:31.384Z,40.16
2023-04-28T13:44:55.483Z,40.43
2023-04-28T13:50:21.225Z,40.26
2023-04-28T13:55:46.736Z,40.31
2023-04-28T14:01:12.438Z,39.87
2023-04-28T14:06:37.602Z,40.58
2023-04-28T14:12:02.529Z,41.26
2023-04-28T14:17:28.795Z,41.13
2023-04-28T14:22:53.880Z,42.03
2023-04-28T14:28:18.352Z,42.63
2023-04-28T14:33:43.076Z,43.23
2023-04-28T14:39:06.892Z,43.45
2023-04-28T14:44:31.263Z,43.25
2023-04-28T14:49:55.519Z,43.11
2023-04-28T14:55:21.631Z,43.64
2023-04-28T15:00:46.331Z,44.31
2023-04-28T15:06:11.939Z,44.05
2023-04-28T15:11:36.389Z,45.56
2023-04-28T15:17:00.545Z,45.87
2023-04-28T15:22:25.291Z,46.32
2023-04-28T15:27:50.950Z,46.83
2023-04-28T15:33:18.097Z,47.09
2023-04-28T15:38:42.997Z,47.37
2023-04-28T15:44:07.719Z,47.29
2023-04-28T15:49:32.299Z,47.54
2023-04-28T15:54:56.822Z,46.82
2023-04-28T16:00:22.449Z,46.47
2023-04-28T16:05:47.605Z,47.26
2023-04-28T16:11:19.704Z,47.33
2023-04-28T16:16:44.900Z,47.56
2023-04-28T16:22:09.656Z,47.88
2023-04-28T16:27:35.648Z,48.18
2023-04-28T16:33:00.468Z,48.57
2023-04-28T16:38:25.479Z,48.66
2023-04-28T16:43:52.056Z,49.08
2023-04-28T16:49:18.618Z,49.42
2023-04-28T16:54:49.476Z,49.78
2023-04-28T17:00:22.481Z,49.88
2023-04-28T17:05:53.448Z,49.76
2023-04-28T17:11:22.345Z,49.19
2023-04-28T17:16:51.439Z,49.29
2023-04-28T17:22:21.620Z,49.68
2023-04-28T17:27:48.658Z,50.01
2023-04-28T17:33:14.809Z,50.75
2023-04-28T17:38:50.641Z,51.16
2023-04-28T17:44:22.043Z,51.19
2023-04-28T17:49:48.770Z,51.43
2023-04-28T17:55:24.398Z,51.47
2023-04-28T18:00:57.820Z,51.34
2023-04-28T18:06:29.608Z,51.22
2023-04-28T18:12:00.552Z,51.34
2023-04-28T18:17:29.500Z,51.65
2023-04-28T18:22:53.744Z,51.99
2023-04-28T18:28:18.331Z,52.30
2023-04-28T18:33:42.292Z,52.67
2023-04-28T18:39:07.044Z,52.96
2023-04-28T18:44:34.761Z,53.23
2023-04-28T18:50:00.409Z,53.51
2023-04-28T18:55:25.091Z,53.73
2023-04-28T19:00:49.500Z,53.70
2023-04-28T19:06:14.904Z,54.08
2023-04-28T19:11:38.903Z,54.53
2023-04-28T19:17:03.930Z,55.15
2023-04-28T19:22:40.772Z,55.63
2023-04-28T19:28:05.221Z,55.44
2023-04-28T19:33:30.043Z,55.60
2023-04-28T19:38:54.332Z,55.66
2023-04-28T19:44:20.615Z,55.71
2023-04-28T19:49:46.771Z,55.78
2023-04-28T19:55:13.718Z,55.91
2023-04-28T20:00:38.828Z,56.13
2023-04-28T20:06:02.953Z,56.25
2023-04-28T20:11:28.925Z,56.64
2023-04-28T20:16:54.558Z,57.11
2023-04-28T20:23:07.324Z,57.36
2023-04-28T20:29:00.130Z,57.41
2023-04-28T20:34:25.155Z,57.91
2023-04-28T20:39:51.217Z,58.18
2023-04-28T20:45:17.608Z,58.61
2023-04-28T20:50:43.596Z,58.99
2023-04-28T20:56:10.028Z,59.21
2023-04-28T21:01:35.881Z,59.44
2023-04-28T21:07:00.630Z,59.56
2023-04-28T21:12:24.642Z,59.70
2023-04-28T21:17:49.818Z,60.04
2023-04-28T21:23:14.366Z,60.58
2023-04-28T21:28:40.503Z,60.97
2023-04-28T21:34:05.332Z,61.27
2023-04-28T21:39:29.831Z,61.41
2023-04-28T21:44:54.292Z,61.48
2023-04-28T21:50:18.720Z,61.75
2023-04-28T21:55:45.153Z,70.80
2023-04-28T22:01:10.467Z,73.85
2023-04-28T22:06:36.246Z,68.57
2023-04-28T22:12:00.253Z,64.03
2023-04-28T22:17:24.178Z,55.58
2023-04-28T22:22:48.550Z,51.15
2023-04-28T22:28:12.676Z,51.32
2023-04-28T22:33:39.146Z,52.17
2023-04-28T22:39:05.311Z,53.31
2023-04-28T22:44:30.433Z,54.48
2023-04-28T22:49:55.952Z,55.88
2023-04-28T22:55:20.881Z,56.96
2023-04-28T23:00:45.353Z,58.04
2023-04-28T23:06:10.887Z,59.33
2023-04-28T23:11:36.044Z,59.78
2023-04-28T23:17:00.276Z,69.90
2023-04-28T23:22:24.836Z,73.67
2023-04-28T23:27:49.524Z,69.70
2023-04-28T23:33:13.559Z,65.40
2023-04-28T23:38:38.435Z,62.16
2023-04-28T23:44:03.239Z,55.12
2023-04-28T23:49:27.163Z,52.00
2023-04-28T23:54:51.717Z,52.79
